createdAt,value
2023-05-14T00:03:50.861Z,100648.03
2023-05-14T00:08:44.274Z,100629.13
2023-05-14T00:13:37.807Z,100627.66
2023-05-14T00:18:31.884Z,100638.72
2023-05-14T00:23:25.693Z,100613.06
2023-05-14T00:28:18.639Z,100650.38
2023-05-14T00:33:11.395Z,100656.88
2023-05-14T00:38:04.145Z,100648.16
2023-05-14T00:42:58.483Z,100623.81
2023-05-14T00:47:51.374Z,100643.59
2023-05-14T00:52:45.517Z,100627.53
2023-05-14T00:57:38.271Z,100654.09
2023-05-14T01:02:32.072Z,100631.16
2023-05-14T01:08:01.883Z,100632.97
2023-05-14T01:13:21.184Z,100604.38
2023-05-14T01:18:17.555Z,100609.84
2023-05-14T01:23:10.685Z,100607.06
2023-05-14T01:28:30.104Z,100599.22
2023-05-14T01:33:26.871Z,100572.63
2023-05-14T01:38:20.702Z,100570.28
2023-05-14T01:43:15.962Z,100590.69
2023-05-14T01:48:09.125Z,100572.09
2023-05-14T01:53:02.496Z,100560.84
2023-05-14T01:57:55.057Z,100560.63
2023-05-14T02:02:46.829Z,100537.13
2023-05-14T02:07:41.471Z,100534.28
2023-05-14T02:12:34.928Z,100526.13
2023-05-14T02:17:28.626Z,100531.63
2023-05-14T02:22:21.317Z,100537.06
2023-05-14T02:27:14.053Z,100529.94
2023-05-14T02:32:09.239Z,100514.00
2023-05-14T02:37:02.436Z,100515.81
2023-05-14T02:41:57.940Z,100516.78
2023-05-14T02:46:51.115Z,100512.94
2023-05-14T02:51:44.961Z,100522.28
2023-05-14T02:56:38.106Z,100519.44
2023-05-14T03:01:30.874Z,100530.81
2023-05-14T03:06:23.691Z,100491.63
2023-05-14T03:11:16.724Z,100478.53
2023-05-14T03:16:10.512Z,100493.19
2023-05-14T03:21:05.663Z,100489.59
2023-05-14T03:25:58.096Z,100488.53
2023-05-14T03:30:51.841Z,100481.94
2023-05-14T03:35:45.707Z,100483.22
2023-05-14T03:40:38.428Z,100472.59
2023-05-14T03:45:31.917Z,100473.53
2023-05-14T03:50:26.116Z,100449.53
2023-05-14T03:55:22.261Z,100454.03
2023-05-14T04:00:16.097Z,100483.31
2023-05-14T04:05:11.051Z,100438.06
2023-05-14T04:10:04.763Z,100482.34
2023-05-14T04:15:00.409Z,100488.72
2023-05-14T04:19:53.769Z,100469.31
2023-05-14T04:24:50.243Z,100485.22
2023-05-14T04:29:42.998Z,100495.84
2023-05-14T04:34:35.631Z,100458.03
2023-05-14T04:39:27.828Z,100469.50
2023-05-14T04:44:21.273Z,100477.69
2023-05-14T04:49:15.126Z,100505.28
2023-05-14T04:54:08.910Z,100487.22
2023-05-14T04:59:01.448Z,100487.22
2023-05-14T05:03:54.916Z,100504.34
2023-05-14T05:08:47.566Z,100472.38
2023-05-14T05:13:41.105Z,100506.03
2023-05-14T05:18:33.818Z,100483.00
2023-05-14T05:23:26.468Z,100486.50
2023-05-14T05:28:20.368Z,100490.94
2023-05-14T05:33:13.686Z,100519.31
2023-05-14T05:38:06.648Z,100514.63
2023-05-14T05:43:00.900Z,100498.50
2023-05-14T05:47:55.016Z,100513.81
2023-05-14T05:52:49.021Z,100512.94
2023-05-14T05:57:43.313Z,100499.53
2023-05-14T06:02:37.795Z,100488.09
2023-05-14T06:07:31.635Z,100513.81
2023-05-14T06:12:24.254Z,100518.56
2023-05-14T06:17:16.574Z,100515.78
2023-05-14T06:22:10.001Z,100501.16
2023-05-14T06:27:04.312Z,100513.06
2023-05-14T06:32:03.441Z,100510.28
2023-05-14T06:36:56.153Z,100473.88
2023-05-14T06:41:50.242Z,100474.06
2023-05-14T06:46:44.785Z,100487.47
2023-05-14T06:51:39.073Z,100458.34
2023-05-14T06:56:32.616Z,100478.75
2023-05-14T07:01:25.688Z,100471.31
2023-05-14T07:06:18.548Z,100490.63
2023-05-14T07:11:13.220Z,100478.22
2023-05-14T07:16:11.970Z,100461.88
2023-05-14T07:21:07.833Z,100446.47
2023-05-14T07:26:01.761Z,100444.44
2023-05-14T07:30:54.668Z,100441.91
2023-05-14T07:35:48.717Z,100457.41
2023-05-14T07:40:42.026Z,100459.13
2023-05-14T07:45:34.991Z,100466.63
2023-05-14T07:50:27.214Z,100449.75
2023-05-14T07:55:21.921Z,100454.50
2023-05-14T08:00:15.032Z,100456.88
2023-05-14T08:05:10.032Z,100437.78
2023-05-14T08:10:03.160Z,100438.59
2023-05-14T08:14:56.705Z,100470.44
2023-05-14T08:19:50.296Z,100416.50
2023-05-14T08:24:43.867Z,100467.78
2023-05-14T08:29:37.472Z,100454.97
2023-05-14T08:34:31.368Z,100461.22
2023-05-14T08:39:24.982Z,100462.41
2023-05-14T08:44:26.410Z,100404.53
2023-05-14T08:49:45.362Z,100417.03
2023-05-14T08:54:38.549Z,100437.44
2023-05-14T08:59:31.313Z,100421.28
2023-05-14T09:04:25.166Z,100411.84
2023-05-14T09:09:19.709Z,100427.56
2023-05-14T09:14:12.993Z,100421.41
2023-05-14T09:19:07.649Z,100401.75
2023-05-14T09:24:00.320Z,100396.25
2023-05-14T09:28:58.144Z,100420.44
2023-05-14T09:33:54.080Z,100406.25
2023-05-14T09:38:47.495Z,100403.59
2023-05-14T09:43:40.114Z,100369.72
2023-05-14T09:48:33.691Z,100404.53
2023-05-14T09:53:26.867Z,100385.66
2023-05-14T09:58:20.751Z,100408.16
2023-05-14T10:03:17.997Z,100422.38
2023-05-14T10:08:24.403Z,100411.94
2023-05-14T10:13:24.874Z,100422.47
2023-05-14T10:18:20.157Z,100411.00
2023-05-14T10:23:13.978Z,100397.09
2023-05-14T10:28:07.811Z,100407.59
2023-05-14T10:33:13.882Z,100398.91
2023-05-14T10:38:09.738Z,100372.28
2023-05-14T10:43:04.899Z,100396.34
2023-05-14T10:47:58.258Z,100388.50
2023-05-14T10:52:51.787Z,100389.47
2023-05-14T10:57:47.061Z,100379.69
2023-05-14T11:02:40.856Z,100358.56
2023-05-14T11:07:36.500Z,100384.34
2023-05-14T11:12:29.140Z,100377.59
2023-05-14T11:17:21.884Z,100386.19
2023-05-14T11:22:15.392Z,100392.44
2023-05-14T11:27:29.157Z,100375.97
2023-05-14T11:32:22.943Z,100328.72
2023-05-14T11:37:17.204Z,100367.81
2023-05-14T11:42:13.038Z,100358.16
2023-05-14T11:47:07.485Z,100293.53
2023-05-14T11:52:02.638Z,100303.50
2023-05-14T11:56:56.625Z,100299.97
2023-05-14T12:01:50.818Z,100329.06
2023-05-14T12:06:43.859Z,100335.00
2023-05-14T12:11:37.827Z,100295.09
2023-05-14T12:16:33.984Z,100320.91
2023-05-14T12:21:30.629Z,100272.81
2023-05-14T12:26:24.436Z,100297.66
2023-05-14T12:31:18.266Z,100294.25
2023-05-14T12:36:21.435Z,100271.13
2023-05-14T12:41:15.520Z,100267.59
2023-05-14T12:46:08.476Z,100253.91
2023-05-14T12:51:01.331Z,100276.13
2023-05-14T12:55:55.757Z,100294.03
2023-05-14T13:00:49.027Z,100256.16
2023-05-14T13:05:42.564Z,100269.22
2023-05-14T13:10:35.127Z,100279.81
2023-05-14T13:15:28.026Z,100264.72
2023-05-14T13:20:20.390Z,100258.34
2023-05-14T13:25:14.504Z,100255.19
2023-05-14T13:30:10.807Z,100250.63
2023-05-14T13:35:05.691Z,100240.72
2023-05-14T13:39:58.286Z,100228.38
2023-05-14T13:44:50.795Z,100246.78
2023-05-14T13:49:44.279Z,100214.31
2023-05-14T13:54:37.330Z,100237.44
2023-05-14T13:59:29.795Z,100223.91
2023-05-14T14:04:23.360Z,100232.25
2023-05-14T14:09:16.792Z,100230.56
2023-05-14T14:14:11.643Z,100235.66
2023-05-14T14:19:06.021Z,100245.31
2023-05-14T14:23:59.773Z,100232.75
2023-05-14T14:28:53.253Z,100238.94
2023-05-14T14:33:47.227Z,100211.47
2023-05-14T14:38:40.100Z,100201.72
2023-05-14T14:43:34.319Z,100222.34
2023-05-14T14:48:35.372Z,100199.13
2023-05-14T14:53:28.944Z,100221.88
2023-05-14T14:58:21.635Z,100218.06
2023-05-14T15:03:16.636Z,100207.59
2023-05-14T15:08:09.751Z,100229.28
2023-05-14T15:13:03.899Z,100214.03
2023-05-14T15:17:57.308Z,100190.09
2023-05-14T15:22:55.412Z,100194.22
2023-05-14T15:27:48.508Z,100225.56
2023-05-14T15:32:42.407Z,100216.75
2023-05-14T15:37:44.305Z,100213.03
2023-05-14T15:42:38.031Z,100214.72
2023-05-14T15:47:31.971Z,100216.84
2023-05-14T15:52:24.978Z,100216.81
2023-05-14T15:57:19.744Z,100220.66
2023-05-14T16:02:13.204Z,100215.47
2023-05-14T16:07:11.418Z,100206.63
2023-05-14T16:12:04.808Z,100220.03
2023-05-14T16:16:58.211Z,100213.63
2023-05-14T16:21:51.275Z,100171.91
2023-05-14T16:26:44.148Z,100209.19
2023-05-14T16:31:37.072Z,100200.28
2023-05-14T16:36:30.127Z,100177.38
2023-05-14T16:41:23.257Z,100157.78
2023-05-14T16:46:17.860Z,100184.78
2023-05-14T16:51:11.322Z,100183.31
2023-05-14T16:56:04.481Z,100203.41
2023-05-14T17:00:57.579Z,100177.44
2023-05-14T17:05:50.113Z,100200.63
2023-05-14T17:10:44.101Z,100190.53
2023-05-14T17:15:38.235Z,100169.03
2023-05-14T17:20:31.531Z,100162.22
2023-05-14T17:25:27.700Z,100155.97
2023-05-14T17:30:20.687Z,100170.84
2023-05-14T17:35:14.322Z,100177.13
2023-05-14T17:40:09.331Z,100175.56
2023-05-14T17:45:02.893Z,100168.78
2023-05-14T17:49:56.633Z,100178.09
2023-05-14T17:54:50.105Z,100165.84
2023-05-14T17:59:43.027Z,100199.31
2023-05-14T18:04:36.449Z,100171.91
2023-05-14T18:09:29.186Z,100202.72
2023-05-14T18:14:22.632Z,100200.94
2023-05-14T18:19:16.431Z,100196.94
2023-05-14T18:24:11.050Z,100164.63
2023-05-14T18:29:03.527Z,100164.41
2023-05-14T18:33:56.573Z,100190.00
2023-05-14T18:38:49.694Z,100228.19
2023-05-14T18:43:43.222Z,100191.22
2023-05-14T18:48:36.752Z,100219.00
2023-05-14T18:53:30.002Z,100216.47
2023-05-14T18:58:23.092Z,100209.88
2023-05-14T19:03:16.382Z,100218.72
2023-05-14T19:08:09.877Z,100235.69
2023-05-14T19:13:04.998Z,100242.06
2023-05-14T19:17:57.913Z,100236.97
2023-05-14T19:22:52.721Z,100232.97
2023-05-14T19:27:48.186Z,100215.94
2023-05-14T19:32:41.326Z,100214.72
2023-05-14T19:37:34.913Z,100253.47
2023-05-14T19:42:29.313Z,100260.69
2023-05-14T19:47:22.019Z,100246.63
2023-05-14T19:52:14.232Z,100253.00
2023-05-14T19:57:06.738Z,100282.72
2023-05-14T20:01:59.403Z,100279.84
2023-05-14T20:06:53.128Z,100236.91
2023-05-14T20:11:47.156Z,100262.78
2023-05-14T20:16:40.250Z,100244.53
2023-05-14T20:21:33.495Z,100278.03
2023-05-14T20:26:29.302Z,100284.09
2023-05-14T20:31:22.403Z,100272.09
2023-05-14T20:36:15.617Z,100255.78
2023-05-14T20:41:08.831Z,100268.84
2023-05-14T20:46:02.732Z,100266.06
2023-05-14T20:50:56.032Z,100272.22
2023-05-14T20:55:49.320Z,100245.59
2023-05-14T21:00:42.420Z,100244.75
2023-05-14T21:05:35.598Z,100236.03
2023-05-14T21:10:28.994Z,100246.00
2023-05-14T21:15:23.018Z,100216.84
2023-05-14T21:20:16.932Z,100211.53
2023-05-14T21:25:11.667Z,100219.50
2023-05-14T21:30:06.278Z,100213.16
2023-05-14T21:34:59.294Z,100237.94
2023-05-14T21:39:52.683Z,100214.50
2023-05-14T21:44:46.213Z,100231.03
2023-05-14T21:49:38.772Z,100229.97
2023-05-14T21:54:31.276Z,100227.31
2023-05-14T21:59:25.926Z,100216.56
2023-05-14T22:04:19.274Z,100194.56
2023-05-14T22:09:13.705Z,100219.13
2023-05-14T22:14:06.754Z,100208.94
2023-05-14T22:19:00.000Z,100201.09
2023-05-14T22:23:53.646Z,100192.53
2023-05-14T22:28:46.333Z,100211.16
2023-05-14T22:33:39.815Z,100192.53
2023-05-14T22:38:38.370Z,100190.09
2023-05-14T22:43:31.760Z,100203.63
2023-05-14T22:48:25.627Z,100195.28
2023-05-14T22:53:18.569Z,100216.34
2023-05-14T22:58:10.869Z,100195.19
2023-05-14T23:03:03.052Z,100219.13
2023-05-14T23:07:56.052Z,100197.94
2023-05-14T23:12:50.061Z,100191.03
2023-05-14T23:17:42.392Z,100209.47
2023-05-14T23:22:35.359Z,100190.38
2023-05-14T23:27:29.586Z,100185.53
2023-05-14T23:32:22.872Z,100199.81
2023-05-14T23:37:16.711Z,100192.81
2023-05-14T23:42:09.840Z,100189.94
2023-05-14T23:47:03.323Z,100189.41
2023-05-14T23:51:57.475Z,100181.78
2023-05-14T23:56:50.715Z,100148.72
